sensor_id;sensor_type;location;lat;lon;timestamp;temperature;humidity
1355;DHT22;671;48.972;9.276;2023-04-23T00:02:05;14.90;99.90
1355;DHT22;671;48.972;9.276;2023-04-23T00:04:36;14.90;99.90
1355;DHT22;671;48.972;9.276;2023-04-23T00:07:04;14.90;99.90
1355;DHT22;671;48.972;9.276;2023-04-23T00:09:31;14.90;99.90
1355;DHT22;671;48.972;9.276;2023-04-23T00:11:59;14.90;99.90
1355;DHT22;671;48.972;9.276;2023-04-23T00:14:27;14.90;99.90
1355;DHT22;671;48.972;9.276;2023-04-23T00:16:54;14.90;99.90
1355;DHT22;671;48.972;9.276;2023-04-23T00:19:20;14.80;99.90
1355;DHT22;671;48.972;9.276;2023-04-23T00:21:47;14.80;99.90
1355;DHT22;671;48.972;9.276;2023-04-23T00:24:14;14.80;99.90
1355;DHT22;671;48.972;9.276;2023-04-23T00:26:40;14.80;99.90
1355;DHT22;671;48.972;9.276;2023-04-23T00:29:07;14.80;99.90
1355;DHT22;671;48.972;9.276;2023-04-23T00:31:33;14.80;99.90
1355;DHT22;671;48.972;9.276;2023-04-23T00:34:00;14.90;99.90
1355;DHT22;671;48.972;9.276;2023-04-23T00:36:26;14.90;99.90
1355;DHT22;671;48.972;9.276;2023-04-23T00:38:53;14.90;99.90
1355;DHT22;671;48.972;9.276;2023-04-23T00:41:19;14.90;99.90
1355;DHT22;671;48.972;9.276;2023-04-23T00:43:46;14.90;99.90
1355;DHT22;671;48.972;9.276;2023-04-23T00:46:14;14.90;99.90
1355;DHT22;671;48.972;9.276;2023-04-23T00:48:42;14.80;99.90
1355;DHT22;671;48.972;9.276;2023-04-23T00:51:10;14.80;99.90
1355;DHT22;671;48.972;9.276;2023-04-23T00:53:37;14.80;99.90
1355;DHT22;671;48.972;9.276;2023-04-23T00:56:04;14.80;99.90
1355;DHT22;671;48.972;9.276;2023-04-23T00:58:32;14.70;99.90
1355;DHT22;671;48.972;9.276;2023-04-23T01:00:59;14.60;99.90
1355;DHT22;671;48.972;9.276;2023-04-23T01:03:28;14.60;99.90
1355;DHT22;671;48.972;9.276;2023-04-23T01:05:55;14.60;99.90
1355;DHT22;671;48.972;9.276;2023-04-23T01:08:23;14.50;99.90
1355;DHT22;671;48.972;9.276;2023-04-23T01:10:51;14.60;99.90
1355;DHT22;671;48.972;9.276;2023-04-23T01:13:18;14.60;99.90
1355;DHT22;671;48.972;9.276;2023-04-23T01:15:45;14.60;99.90
1355;DHT22;671;48.972;9.276;2023-04-23T01:18:13;14.60;99.90
1355;DHT22;671;48.972;9.276;2023-04-23T01:20:40;14.60;99.90
1355;DHT22;671;48.972;9.276;2023-04-23T01:23:08;14.60;99.90
1355;DHT22;671;48.972;9.276;2023-04-23T01:25:35;14.50;99.90
1355;DHT22;671;48.972;9.276;2023-04-23T01:28:01;14.50;99.90
1355;DHT22;671;48.972;9.276;2023-04-23T01:30:29;14.50;99.90
1355;DHT22;671;48.972;9.276;2023-04-23T01:32:56;14.50;99.90
1355;DHT22;671;48.972;9.276;2023-04-23T01:35:24;14.50;99.90
1355;DHT22;671;48.972;9.276;2023-04-23T01:37:52;14.50;99.90
1355;DHT22;671;48.972;9.276;2023-04-23T01:40:20;14.40;99.90
1355;DHT22;671;48.972;9.276;2023-04-23T01:42:47;14.40;99.90
1355;DHT22;671;48.972;9.276;2023-04-23T01:45:14;14.30;99.90
1355;DHT22;671;48.972;9.276;2023-04-23T01:47:42;14.30;99.90
1355;DHT22;671;48.972;9.276;2023-04-23T01:50:09;14.30;99.90
1355;DHT22;671;48.972;9.276;2023-04-23T01:52:36;14.30;99.90
1355;DHT22;671;48.972;9.276;2023-04-23T01:55:02;14.20;99.90
1355;DHT22;671;48.972;9.276;2023-04-23T01:57:29;14.20;99.90
1355;DHT22;671;48.972;9.276;2023-04-23T02:00:04;14.20;99.90
1355;DHT22;671;48.972;9.276;2023-04-23T02:02:47;14.10;99.90
1355;DHT22;671;48.972;9.276;2023-04-23T02:05:16;14.10;99.90
1355;DHT22;671;48.972;9.276;2023-04-23T02:07:48;14.10;99.90
1355;DHT22;671;48.972;9.276;2023-04-23T02:10:15;14.10;99.90
1355;DHT22;671;48.972;9.276;2023-04-23T02:12:43;14.10;99.90
1355;DHT22;671;48.972;9.276;2023-04-23T02:15:10;14.10;99.90
1355;DHT22;671;48.972;9.276;2023-04-23T02:17:37;14.10;99.90
1355;DHT22;671;48.972;9.276;2023-04-23T02:20:07;14.10;99.90
1355;DHT22;671;48.972;9.276;2023-04-23T02:22:36;14.20;99.90
1355;DHT22;671;48.972;9.276;2023-04-23T02:25:05;14.20;99.90
1355;DHT22;671;48.972;9.276;2023-04-23T02:27:33;14.20;99.90
1355;DHT22;671;48.972;9.276;2023-04-23T02:30:00;14.10;99.90
1355;DHT22;671;48.972;9.276;2023-04-23T02:32:26;14.10;99.90
1355;DHT22;671;48.972;9.276;2023-04-23T02:34:53;14.10;99.90
1355;DHT22;671;48.972;9.276;2023-04-23T02:37:19;14.10;99.90
1355;DHT22;671;48.972;9.276;2023-04-23T02:39:46;14.10;99.90
1355;DHT22;671;48.972;9.276;2023-04-23T02:42:13;14.10;99.90
1355;DHT22;671;48.972;9.276;2023-04-23T02:44:39;14.10;99.90
1355;DHT22;671;48.972;9.276;2023-04-23T02:47:06;14.10;99.90
1355;DHT22;671;48.972;9.276;2023-04-23T02:49:32;14.10;99.90
1355;DHT22;671;48.972;9.276;2023-04-23T02:51:59;14.00;99.90
1355;DHT22;671;48.972;9.276;2023-04-23T02:54:25;14.10;99.90
1355;DHT22;671;48.972;9.276;2023-04-23T02:56:52;14.00;99.90
1355;DHT22;671;48.972;9.276;2023-04-23T02:59:18;14.00;99.90
1355;DHT22;671;48.972;9.276;2023-04-23T03:01:45;14.00;99.90
1355;DHT22;671;48.972;9.276;2023-04-23T03:04:11;13.90;99.90
1355;DHT22;671;48.972;9.276;2023-04-23T03:06:38;13.90;99.90
1355;DHT22;671;48.972;9.276;2023-04-23T03:09:04;13.90;99.90
1355;DHT22;671;48.972;9.276;2023-04-23T03:11:31;13.80;99.90
1355;DHT22;671;48.972;9.276;2023-04-23T03:13:57;13.80;99.90
1355;DHT22;671;48.972;9.276;2023-04-23T03:16:25;13.80;99.90
1355;DHT22;671;48.972;9.276;2023-04-23T03:18:53;13.80;99.90
1355;DHT22;671;48.972;9.276;2023-04-23T03:21:22;13.80;99.90
1355;DHT22;671;48.972;9.276;2023-04-23T03:23:49;13.80;99.90
1355;DHT22;671;48.972;9.276;2023-04-23T03:26:15;13.80;99.90
1355;DHT22;671;48.972;9.276;2023-04-23T03:28:42;13.80;99.90
1355;DHT22;671;48.972;9.276;2023-04-23T03:31:08;13.80;99.90
1355;DHT22;671;48.972;9.276;2023-04-23T03:33:35;13.80;99.90
1355;DHT22;671;48.972;9.276;2023-04-23T03:36:01;13.80;99.90
1355;DHT22;671;48.972;9.276;2023-04-23T03:38:28;13.70;99.90
1355;DHT22;671;48.972;9.276;2023-04-23T03:40:54;13.70;99.90
1355;DHT22;671;48.972;9.276;2023-04-23T03:43:21;13.70;99.90
1355;DHT22;671;48.972;9.276;2023-04-23T03:45:47;13.70;99.90
1355;DHT22;671;48.972;9.276;2023-04-23T03:48:14;13.70;99.90
1355;DHT22;671;48.972;9.276;2023-04-23T03:50:41;13.60;99.90
1355;DHT22;671;48.972;9.276;2023-04-23T03:53:07;13.60;99.90
1355;DHT22;671;48.972;9.276;2023-04-23T03:55:35;13.60;99.90
1355;DHT22;671;48.972;9.276;2023-04-23T03:58:02;13.60;99.90
1355;DHT22;671;48.972;9.276;2023-04-23T04:00:28;13.60;99.90
1355;DHT22;671;48.972;9.276;2023-04-23T04:02:55;13.60;99.90
1355;DHT22;671;48.972;9.276;2023-04-23T04:05:22;13.60;99.90
1355;DHT22;671;48.972;9.276;2023-04-23T04:07:48;13.60;99.90
1355;DHT22;671;48.972;9.276;2023-04-23T04:10:15;13.60;99.90
1355;DHT22;671;48.972;9.276;2023-04-23T04:12:41;13.50;99.90
1355;DHT22;671;48.972;9.276;2023-04-23T04:15:11;13.50;99.90
1355;DHT22;671;48.972;9.276;2023-04-23T04:17:38;13.50;99.90
1355;DHT22;671;48.972;9.276;2023-04-23T04:20:05;13.50;99.90
1355;DHT22;671;48.972;9.276;2023-04-23T04:22:33;13.50;99.90
1355;DHT22;671;48.972;9.276;2023-04-23T04:25:00;13.50;99.90
1355;DHT22;671;48.972;9.276;2023-04-23T04:27:26;13.50;99.90
1355;DHT22;671;48.972;9.276;2023-04-23T04:29:53;13.40;99.90
1355;DHT22;671;48.972;9.276;2023-04-23T04:32:19;13.40;99.90
1355;DHT22;671;48.972;9.276;2023-04-23T04:34:47;13.40;99.90
1355;DHT22;671;48.972;9.276;2023-04-23T04:37:15;13.40;99.90
1355;DHT22;671;48.972;9.276;2023-04-23T04:39:41;13.30;99.90
1355;DHT22;671;48.972;9.276;2023-04-23T04:42:08;13.30;99.90
1355;DHT22;671;48.972;9.276;2023-04-23T04:44:36;13.40;99.90
1355;DHT22;671;48.972;9.276;2023-04-23T04:47:02;13.40;99.90
1355;DHT22;671;48.972;9.276;2023-04-23T04:49:29;13.40;99.90
1355;DHT22;671;48.972;9.276;2023-04-23T04:51:55;13.40;99.90
1355;DHT22;671;48.972;9.276;2023-04-23T04:54:22;13.40;99.90
1355;DHT22;671;48.972;9.276;2023-04-23T04:56:48;13.40;99.90
1355;DHT22;671;48.972;9.276;2023-04-23T04:59:15;13.50;99.90
1355;DHT22;671;48.972;9.276;2023-04-23T05:01:42;13.40;99.90
1355;DHT22;671;48.972;9.276;2023-04-23T05:04:08;13.30;99.90
1355;DHT22;671;48.972;9.276;2023-04-23T05:06:35;13.30;99.90
1355;DHT22;671;48.972;9.276;2023-04-23T05:09:01;13.40;99.90
1355;DHT22;671;48.972;9.276;2023-04-23T05:11:28;13.40;99.90
1355;DHT22;671;48.972;9.276;2023-04-23T05:13:56;13.40;99.90
1355;DHT22;671;48.972;9.276;2023-04-23T05:16:22;13.50;99.90
1355;DHT22;671;48.972;9.276;2023-04-23T05:18:49;13.60;99.90
1355;DHT22;671;48.972;9.276;2023-04-23T05:21:16;13.60;99.90
1355;DHT22;671;48.972;9.276;2023-04-23T05:23:44;13.80;99.90
1355;DHT22;671;48.972;9.276;2023-04-23T05:26:11;13.90;99.90
1355;DHT22;671;48.972;9.276;2023-04-23T05:28:37;14.00;99.90
1355;DHT22;671;48.972;9.276;2023-04-23T05:31:04;14.10;99.90
1355;DHT22;671;48.972;9.276;2023-04-23T05:33:31;14.20;99.90
1355;DHT22;671;48.972;9.276;2023-04-23T05:35:57;14.30;99.90
1355;DHT22;671;48.972;9.276;2023-04-23T05:38:24;14.50;99.90
1355;DHT22;671;48.972;9.276;2023-04-23T05:40:51;14.60;99.90
1355;DHT22;671;48.972;9.276;2023-04-23T05:43:18;14.60;99.90
1355;DHT22;671;48.972;9.276;2023-04-23T05:45:44;14.50;99.90
1355;DHT22;671;48.972;9.276;2023-04-23T05:48:11;14.40;99.90
1355;DHT22;671;48.972;9.276;2023-04-23T05:50:37;14.40;99.90
1355;DHT22;671;48.972;9.276;2023-04-23T05:53:04;14.30;99.90
1355;DHT22;671;48.972;9.276;2023-04-23T05:55:30;14.40;99.90
1355;DHT22;671;48.972;9.276;2023-04-23T05:57:57;14.50;99.90
1355;DHT22;671;48.972;9.276;2023-04-23T06:00:23;14.50;99.90
1355;DHT22;671;48.972;9.276;2023-04-23T06:02:50;14.50;99.90
1355;DHT22;671;48.972;9.276;2023-04-23T06:05:17;14.60;99.90
1355;DHT22;671;48.972;9.276;2023-04-23T06:07:43;14.40;99.90
1355;DHT22;671;48.972;9.276;2023-04-23T06:10:10;14.50;99.90
1355;DHT22;671;48.972;9.276;2023-04-23T06:12:37;14.50;99.90
1355;DHT22;671;48.972;9.276;2023-04-23T06:15:08;14.50;99.90
1355;DHT22;671;48.972;9.276;2023-04-23T06:17:36;14.50;99.90
1355;DHT22;671;48.972;9.276;2023-04-23T06:20:02;14.60;99.90
1355;DHT22;671;48.972;9.276;2023-04-23T06:22:30;14.60;99.90
1355;DHT22;671;48.972;9.276;2023-04-23T06:24:57;14.60;99.90
1355;DHT22;671;48.972;9.276;2023-04-23T06:27:24;14.70;99.90
1355;DHT22;671;48.972;9.276;2023-04-23T06:29:52;14.80;99.90
1355;DHT22;671;48.972;9.276;2023-04-23T06:32:19;14.80;99.90
1355;DHT22;671;48.972;9.276;2023-04-23T06:34:45;14.90;99.90
1355;DHT22;671;48.972;9.276;2023-04-23T06:37:12;15.00;99.90
1355;DHT22;671;48.972;9.276;2023-04-23T06:39:38;15.20;99.90
1355;DHT22;671;48.972;9.276;2023-04-23T06:42:05;15.30;99.90
1355;DHT22;671;48.972;9.276;2023-04-23T06:44:32;15.40;99.90
1355;DHT22;671;48.972;9.276;2023-04-23T06:46:58;15.50;99.90
1355;DHT22;671;48.972;9.276;2023-04-23T06:49:25;15.80;99.90
1355;DHT22;671;48.972;9.276;2023-04-23T06:51:51;15.90;99.90
1355;DHT22;671;48.972;9.276;2023-04-23T06:54:18;16.00;99.90
1355;DHT22;671;48.972;9.276;2023-04-23T06:56:44;16.10;99.90
1355;DHT22;671;48.972;9.276;2023-04-23T06:59:11;16.20;99.90
1355;DHT22;671;48.972;9.276;2023-04-23T07:01:37;16.20;99.90
1355;DHT22;671;48.972;9.276;2023-04-23T07:04:04;16.20;99.90
1355;DHT22;671;48.972;9.276;2023-04-23T07:06:30;16.20;99.90
1355;DHT22;671;48.972;9.276;2023-04-23T07:08:59;16.30;99.90
1355;DHT22;671;48.972;9.276;2023-04-23T07:11:26;16.50;99.90
1355;DHT22;671;48.972;9.276;2023-04-23T07:13:52;16.50;99.90
1355;DHT22;671;48.972;9.276;2023-04-23T07:16:19;16.50;99.90
1355;DHT22;671;48.972;9.276;2023-04-23T07:18:48;16.80;99.90
1355;DHT22;671;48.972;9.276;2023-04-23T07:21:15;17.00;99.90
1355;DHT22;671;48.972;9.276;2023-04-23T07:23:41;17.00;99.90
1355;DHT22;671;48.972;9.276;2023-04-23T07:26:08;17.10;99.90
1355;DHT22;671;48.972;9.276;2023-04-23T07:28:34;17.20;99.90
1355;DHT22;671;48.972;9.276;2023-04-23T07:31:01;17.20;99.90
1355;DHT22;671;48.972;9.276;2023-04-23T07:33:28;17.10;99.90
1355;DHT22;671;48.972;9.276;2023-04-23T07:35:54;17.10;99.90
1355;DHT22;671;48.972;9.276;2023-04-23T07:38:20;17.20;99.90
1355;DHT22;671;48.972;9.276;2023-04-23T07:40:47;17.20;99.90
1355;DHT22;671;48.972;9.276;2023-04-23T07:43:13;17.30;99.90
1355;DHT22;671;48.972;9.276;2023-04-23T07:45:42;17.40;99.90
1355;DHT22;671;48.972;9.276;2023-04-23T07:48:08;17.40;99.90
1355;DHT22;671;48.972;9.276;2023-04-23T07:50:35;17.30;99.90
1355;DHT22;671;48.972;9.276;2023-04-23T07:53:01;17.30;99.90
1355;DHT22;671;48.972;9.276;2023-04-23T07:55:28;17.30;99.90
1355;DHT22;671;48.972;9.276;2023-04-23T07:57:54;17.30;99.90
1355;DHT22;671;48.972;9.276;2023-04-23T08:00:21;17.30;99.90
1355;DHT22;671;48.972;9.276;2023-04-23T08:02:47;17.40;99.90
1355;DHT22;671;48.972;9.276;2023-04-23T08:05:14;17.50;99.90
1355;DHT22;671;48.972;9.276;2023-04-23T08:07:40;17.60;99.90
1355;DHT22;671;48.972;9.276;2023-04-23T08:10:07;17.60;99.90
1355;DHT22;671;48.972;9.276;2023-04-23T08:12:34;17.70;99.90
1355;DHT22;671;48.972;9.276;2023-04-23T08:15:01;17.80;99.90
1355;DHT22;671;48.972;9.276;2023-04-23T08:17:28;17.80;99.90
1355;DHT22;671;48.972;9.276;2023-04-23T08:19:55;17.90;99.90
1355;DHT22;671;48.972;9.276;2023-04-23T08:22:21;18.00;99.90
1355;DHT22;671;48.972;9.276;2023-04-23T08:24:48;18.00;99.90
1355;DHT22;671;48.972;9.276;2023-04-23T08:27:15;18.10;99.90
1355;DHT22;671;48.972;9.276;2023-04-23T08:29:41;18.20;99.90
1355;DHT22;671;48.972;9.276;2023-04-23T08:32:08;18.20;99.90
1355;DHT22;671;48.972;9.276;2023-04-23T08:34:34;18.30;99.90
1355;DHT22;671;48.972;9.276;2023-04-23T08:37:01;18.30;99.90
1355;DHT22;671;48.972;9.276;2023-04-23T08:39:30;18.20;99.90
1355;DHT22;671;48.972;9.276;2023-04-23T08:42:06;18.30;99.90
1355;DHT22;671;48.972;9.276;2023-04-23T08:44:36;18.20;99.90
1355;DHT22;671;48.972;9.276;2023-04-23T08:47:04;18.30;99.90
1355;DHT22;671;48.972;9.276;2023-04-23T08:49:32;18.30;99.90
1355;DHT22;671;48.972;9.276;2023-04-23T08:52:12;18.30;99.90
1355;DHT22;671;48.972;9.276;2023-04-23T08:54:43;18.60;99.90
1355;DHT22;671;48.972;9.276;2023-04-23T08:57:11;18.90;99.90
1355;DHT22;671;48.972;9.276;2023-04-23T08:59:39;19.10;99.90
1355;DHT22;671;48.972;9.276;2023-04-23T09:02:07;19.00;99.90
1355;DHT22;671;48.972;9.276;2023-04-23T09:04:36;19.10;99.90
1355;DHT22;671;48.972;9.276;2023-04-23T09:07:03;19.20;99.90
1355;DHT22;671;48.972;9.276;2023-04-23T09:09:30;19.30;99.90
1355;DHT22;671;48.972;9.276;2023-04-23T09:11:56;19.40;99.90
1355;DHT22;671;48.972;9.276;2023-04-23T09:14:23;19.60;99.90
1355;DHT22;671;48.972;9.276;2023-04-23T09:16:51;19.80;99.90
1355;DHT22;671;48.972;9.276;2023-04-23T09:19:18;20.00;99.90
1355;DHT22;671;48.972;9.276;2023-04-23T09:21:45;20.10;99.90
1355;DHT22;671;48.972;9.276;2023-04-23T09:24:12;20.20;99.90
1355;DHT22;671;48.972;9.276;2023-04-23T09:26:44;20.40;99.90
1355;DHT22;671;48.972;9.276;2023-04-23T09:29:13;20.40;99.90
1355;DHT22;671;48.972;9.276;2023-04-23T09:31:43;20.50;99.90
1355;DHT22;671;48.972;9.276;2023-04-23T09:34:09;20.60;99.90
1355;DHT22;671;48.972;9.276;2023-04-23T09:36:36;20.50;99.90
1355;DHT22;671;48.972;9.276;2023-04-23T09:39:14;20.30;99.90
1355;DHT22;671;48.972;9.276;2023-04-23T09:41:41;20.30;99.90
1355;DHT22;671;48.972;9.276;2023-04-23T09:44:07;20.40;99.90
1355;DHT22;671;48.972;9.276;2023-04-23T09:46:43;20.60;99.90
1355;DHT22;671;48.972;9.276;2023-04-23T09:49:12;20.70;99.90
1355;DHT22;671;48.972;9.276;2023-04-23T09:51:39;20.60;99.90
1355;DHT22;671;48.972;9.276;2023-04-23T09:54:26;20.70;99.90
1355;DHT22;671;48.972;9.276;2023-04-23T09:56:53;20.90;99.90
1355;DHT22;671;48.972;9.276;2023-04-23T09:59:29;20.90;99.90
1355;DHT22;671;48.972;9.276;2023-04-23T10:01:56;20.90;99.90
1355;DHT22;671;48.972;9.276;2023-04-23T10:04:26;21.00;99.90
1355;DHT22;671;48.972;9.276;2023-04-23T10:09:25;20.60;99.90
1355;DHT22;671;48.972;9.276;2023-04-23T10:12:01;20.60;99.90
1355;DHT22;671;48.972;9.276;2023-04-23T10:14:28;20.70;99.90
1355;DHT22;671;48.972;9.276;2023-04-23T10:17:03;20.60;99.90
1355;DHT22;671;48.972;9.276;2023-04-23T10:19:31;20.60;99.90
1355;DHT22;671;48.972;9.276;2023-04-23T10:22:04;20.80;99.90
1355;DHT22;671;48.972;9.276;2023-04-23T10:24:33;20.90;99.90
1355;DHT22;671;48.972;9.276;2023-04-23T10:27:02;21.00;99.90
1355;DHT22;671;48.972;9.276;2023-04-23T10:29:30;21.10;99.90
1355;DHT22;671;48.972;9.276;2023-04-23T10:31:59;21.20;99.90
1355;DHT22;671;48.972;9.276;2023-04-23T10:34:27;21.40;99.90
1355;DHT22;671;48.972;9.276;2023-04-23T10:36:56;21.50;99.90
1355;DHT22;671;48.972;9.276;2023-04-23T10:39:27;21.60;99.90
1355;DHT22;671;48.972;9.276;2023-04-23T10:41:55;21.70;99.90
1355;DHT22;671;48.972;9.276;2023-04-23T10:44:32;21.90;99.90
1355;DHT22;671;48.972;9.276;2023-04-23T10:46:59;22.00;99.90
1355;DHT22;671;48.972;9.276;2023-04-23T10:49:32;22.20;99.90
1355;DHT22;671;48.972;9.276;2023-04-23T10:52:07;22.40;99.90
1355;DHT22;671;48.972;9.276;2023-04-23T10:54:34;22.50;99.90
1355;DHT22;671;48.972;9.276;2023-04-23T10:57:03;22.40;99.90
1355;DHT22;671;48.972;9.276;2023-04-23T10:59:31;22.40;99.90
1355;DHT22;671;48.972;9.276;2023-04-23T11:02:06;22.30;99.90
1355;DHT22;671;48.972;9.276;2023-04-23T11:04:34;22.20;99.90
1355;DHT22;671;48.972;9.276;2023-04-23T11:07:08;22.30;99.90
1355;DHT22;671;48.972;9.276;2023-04-23T11:12:06;22.40;99.90
1355;DHT22;671;48.972;9.276;2023-04-23T11:17:13;22.40;99.90
1355;DHT22;671;48.972;9.276;2023-04-23T11:20:04;22.50;99.90
1355;DHT22;671;48.972;9.276;2023-04-23T11:27:41;22.60;99.80
1355;DHT22;671;48.972;9.276;2023-04-23T11:32:47;22.80;99.70
1355;DHT22;671;48.972;9.276;2023-04-23T11:35:17;22.90;99.90
1355;DHT22;671;48.972;9.276;2023-04-23T11:37:44;23.00;99.40
1355;DHT22;671;48.972;9.276;2023-04-23T11:40:13;23.00;99.80
1355;DHT22;671;48.972;9.276;2023-04-23T11:42:48;23.10;99.70
1355;DHT22;671;48.972;9.276;2023-04-23T11:47:44;23.00;98.70
1355;DHT22;671;48.972;9.276;2023-04-23T11:50:18;23.00;98.30
1355;DHT22;671;48.972;9.276;2023-04-23T11:52:45;22.90;99.40
1355;DHT22;671;48.972;9.276;2023-04-23T11:55:12;22.90;97.40
1355;DHT22;671;48.972;9.276;2023-04-23T11:57:43;22.90;98.70
1355;DHT22;671;48.972;9.276;2023-04-23T12:00:18;22.90;99.50
1355;DHT22;671;48.972;9.276;2023-04-23T12:05:26;23.10;97.80
1355;DHT22;671;48.972;9.276;2023-04-23T12:07:53;23.20;98.30
1355;DHT22;671;48.972;9.276;2023-04-23T12:10:20;23.20;98.70
1355;DHT22;671;48.972;9.276;2023-04-23T12:12:53;23.40;98.50
1355;DHT22;671;48.972;9.276;2023-04-23T12:15:19;23.40;96.80
1355;DHT22;671;48.972;9.276;2023-04-23T12:17:50;23.40;97.30
1355;DHT22;671;48.972;9.276;2023-04-23T12:20:20;23.40;98.00
1355;DHT22;671;48.972;9.276;2023-04-23T12:22:47;23.50;96.30
1355;DHT22;671;48.972;9.276;2023-04-23T12:25:14;23.50;96.30
1355;DHT22;671;48.972;9.276;2023-04-23T12:27:43;23.50;95.90
1355;DHT22;671;48.972;9.276;2023-04-23T12:30:10;23.40;96.00
1355;DHT22;671;48.972;9.276;2023-04-23T12:32:37;23.10;93.20
1355;DHT22;671;48.972;9.276;2023-04-23T12:35:04;23.10;93.10
1355;DHT22;671;48.972;9.276;2023-04-23T12:37:35;23.00;94.10
1355;DHT22;671;48.972;9.276;2023-04-23T12:40:02;23.10;94.40
1355;DHT22;671;48.972;9.276;2023-04-23T12:42:32;23.20;96.50
1355;DHT22;671;48.972;9.276;2023-04-23T12:45:07;23.30;95.10
1355;DHT22;671;48.972;9.276;2023-04-23T12:47:34;23.40;94.60
1355;DHT22;671;48.972;9.276;2023-04-23T12:50:00;23.50;94.80
1355;DHT22;671;48.972;9.276;2023-04-23T12:52:29;23.40;95.20
1355;DHT22;671;48.972;9.276;2023-04-23T12:54:56;23.40;95.20
1355;DHT22;671;48.972;9.276;2023-04-23T12:57:24;23.10;95.00
1355;DHT22;671;48.972;9.276;2023-04-23T12:59:52;23.20;95.20
1355;DHT22;671;48.972;9.276;2023-04-23T13:02:20;23.20;95.10
1355;DHT22;671;48.972;9.276;2023-04-23T13:04:46;23.30;94.70
1355;DHT22;671;48.972;9.276;2023-04-23T13:07:13;23.30;93.70
1355;DHT22;671;48.972;9.276;2023-04-23T13:09:40;23.30;95.10
1355;DHT22;671;48.972;9.276;2023-04-23T13:12:06;23.20;95.10
1355;DHT22;671;48.972;9.276;2023-04-23T13:14:33;23.20;93.60
1355;DHT22;671;48.972;9.276;2023-04-23T13:16:59;23.10;95.00
1355;DHT22;671;48.972;9.276;2023-04-23T13:19:26;23.10;94.40
1355;DHT22;671;48.972;9.276;2023-04-23T13:21:52;23.10;94.70
1355;DHT22;671;48.972;9.276;2023-04-23T13:24:19;23.10;95.00
1355;DHT22;671;48.972;9.276;2023-04-23T13:26:46;23.00;94.10
1355;DHT22;671;48.972;9.276;2023-04-23T13:29:12;22.80;94.00
1355;DHT22;671;48.972;9.276;2023-04-23T13:31:39;22.60;94.00
1355;DHT22;671;48.972;9.276;2023-04-23T13:34:05;22.60;93.80
1355;DHT22;671;48.972;9.276;2023-04-23T13:36:32;22.80;96.00
1355;DHT22;671;48.972;9.276;2023-04-23T13:38:59;22.80;94.90
1355;DHT22;671;48.972;9.276;2023-04-23T13:41:25;22.90;94.40
1355;DHT22;671;48.972;9.276;2023-04-23T13:43:52;23.00;94.00
1355;DHT22;671;48.972;9.276;2023-04-23T13:46:19;23.00;95.00
1355;DHT22;671;48.972;9.276;2023-04-23T13:48:45;23.10;94.70
1355;DHT22;671;48.972;9.276;2023-04-23T13:51:12;23.30;93.00
1355;DHT22;671;48.972;9.276;2023-04-23T13:53:38;23.40;94.20
1355;DHT22;671;48.972;9.276;2023-04-23T13:56:05;23.50;95.20
1355;DHT22;671;48.972;9.276;2023-04-23T13:58:35;23.40;95.00
1355;DHT22;671;48.972;9.276;2023-04-23T14:01:03;23.30;94.40
1355;DHT22;671;48.972;9.276;2023-04-23T14:03:29;23.50;93.90
1355;DHT22;671;48.972;9.276;2023-04-23T14:05:56;23.60;93.90
1355;DHT22;671;48.972;9.276;2023-04-23T14:08:23;23.60;94.90
1355;DHT22;671;48.972;9.276;2023-04-23T14:10:50;23.50;92.10
1355;DHT22;671;48.972;9.276;2023-04-23T14:13:17;23.60;93.80
1355;DHT22;671;48.972;9.276;2023-04-23T14:15:43;23.50;93.30
1355;DHT22;671;48.972;9.276;2023-04-23T14:18:10;23.50;94.60
1355;DHT22;671;48.972;9.276;2023-04-23T14:20:37;23.60;92.80
1355;DHT22;671;48.972;9.276;2023-04-23T14:25:58;23.90;94.00
1355;DHT22;671;48.972;9.276;2023-04-23T14:28:33;24.00;93.20
1355;DHT22;671;48.972;9.276;2023-04-23T14:31:00;24.10;93.60
1355;DHT22;671;48.972;9.276;2023-04-23T14:33:27;24.10;92.80
1355;DHT22;671;48.972;9.276;2023-04-23T14:35:53;24.00;93.50
1355;DHT22;671;48.972;9.276;2023-04-23T14:38:20;24.10;93.10
1355;DHT22;671;48.972;9.276;2023-04-23T14:40:47;24.00;91.10
1355;DHT22;671;48.972;9.276;2023-04-23T14:43:13;24.20;91.70
1355;DHT22;671;48.972;9.276;2023-04-23T14:45:40;24.10;90.70
1355;DHT22;671;48.972;9.276;2023-04-23T14:48:06;24.20;90.20
1355;DHT22;671;48.972;9.276;2023-04-23T14:50:33;24.10;90.30
1355;DHT22;671;48.972;9.276;2023-04-23T14:52:59;24.10;89.00
1355;DHT22;671;48.972;9.276;2023-04-23T14:55:28;24.20;87.40
1355;DHT22;671;48.972;9.276;2023-04-23T14:57:55;24.10;82.50
1355;DHT22;671;48.972;9.276;2023-04-23T15:00:21;24.00;83.40
1355;DHT22;671;48.972;9.276;2023-04-23T15:02:48;24.00;82.00
1355;DHT22;671;48.972;9.276;2023-04-23T15:05:14;23.90;80.80
1355;DHT22;671;48.972;9.276;2023-04-23T15:07:42;23.80;81.60
1355;DHT22;671;48.972;9.276;2023-04-23T15:10:09;23.70;79.90
1355;DHT22;671;48.972;9.276;2023-04-23T15:17:51;23.50;82.80
1355;DHT22;671;48.972;9.276;2023-04-23T15:20:18;23.40;82.60
1355;DHT22;671;48.972;9.276;2023-04-23T15:22:45;23.30;83.50
1355;DHT22;671;48.972;9.276;2023-04-23T15:25:14;23.10;83.40
1355;DHT22;671;48.972;9.276;2023-04-23T15:27:42;23.00;83.60
1355;DHT22;671;48.972;9.276;2023-04-23T15:30:09;23.00;83.40
1355;DHT22;671;48.972;9.276;2023-04-23T15:32:35;23.00;84.00
1355;DHT22;671;48.972;9.276;2023-04-23T15:35:02;22.90;84.80
1355;DHT22;671;48.972;9.276;2023-04-23T15:37:28;22.80;85.80
1355;DHT22;671;48.972;9.276;2023-04-23T15:39:58;22.80;85.30
1355;DHT22;671;48.972;9.276;2023-04-23T15:42:25;22.80;89.40
1355;DHT22;671;48.972;9.276;2023-04-23T15:44:51;22.80;88.20
1355;DHT22;671;48.972;9.276;2023-04-23T15:47:21;22.70;85.70
1355;DHT22;671;48.972;9.276;2023-04-23T15:49:48;22.70;85.70
1355;DHT22;671;48.972;9.276;2023-04-23T15:52:16;22.70;86.20
1355;DHT22;671;48.972;9.276;2023-04-23T15:54:43;22.70;86.00
1355;DHT22;671;48.972;9.276;2023-04-23T15:57:10;22.70;87.00
1355;DHT22;671;48.972;9.276;2023-04-23T15:59:37;22.80;88.50
1355;DHT22;671;48.972;9.276;2023-04-23T16:02:03;22.80;88.40
1355;DHT22;671;48.972;9.276;2023-04-23T16:04:30;22.70;87.30
1355;DHT22;671;48.972;9.276;2023-04-23T16:06:57;22.80;88.30
1355;DHT22;671;48.972;9.276;2023-04-23T16:09:23;22.70;86.40
1355;DHT22;671;48.972;9.276;2023-04-23T16:11:51;22.70;86.70
1355;DHT22;671;48.972;9.276;2023-04-23T16:14:18;22.70;87.70
1355;DHT22;671;48.972;9.276;2023-04-23T16:16:45;22.50;87.40
1355;DHT22;671;48.972;9.276;2023-04-23T16:19:11;22.40;86.90
1355;DHT22;671;48.972;9.276;2023-04-23T16:21:38;22.20;87.10
1355;DHT22;671;48.972;9.276;2023-04-23T16:24:04;21.90;88.90
1355;DHT22;671;48.972;9.276;2023-04-23T16:26:32;21.70;89.00
1355;DHT22;671;48.972;9.276;2023-04-23T16:28:59;21.40;90.00
1355;DHT22;671;48.972;9.276;2023-04-23T16:31:25;21.20;90.20
1355;DHT22;671;48.972;9.276;2023-04-23T16:33:52;21.00;90.30
1355;DHT22;671;48.972;9.276;2023-04-23T16:36:19;20.90;91.00
1355;DHT22;671;48.972;9.276;2023-04-23T16:38:45;20.80;91.40
1355;DHT22;671;48.972;9.276;2023-04-23T16:41:17;20.70;91.40
1355;DHT22;671;48.972;9.276;2023-04-23T16:43:47;20.50;92.30
1355;DHT22;671;48.972;9.276;2023-04-23T16:46:13;20.40;92.40
1355;DHT22;671;48.972;9.276;2023-04-23T16:48:42;20.20;92.70